sensor_id;sensor_type;location;lat;lon;timestamp;P1;durP1;ratioP1;P2;durP2;ratioP2
70102;SDS011;57470;50.034;15.256;2023-04-25T00:01:18;4.40;;;1.25;;
70102;SDS011;57470;50.034;15.256;2023-04-25T00:03:44;3.70;;;0.97;;
70102;SDS011;57470;50.034;15.256;2023-04-25T00:06:10;3.88;;;0.90;;
70102;SDS011;57470;50.034;15.256;2023-04-25T00:08:36;4.00;;;1.00;;
70102;SDS011;57470;50.034;15.256;2023-04-25T00:11:01;4.13;;;1.63;;
70102;SDS011;57470;50.034;15.256;2023-04-25T00:13:26;3.83;;;1.20;;
70102;SDS011;57470;50.034;15.256;2023-04-25T00:15:52;2.40;;;0.73;;
70102;SDS011;57470;50.034;15.256;2023-04-25T00:18:25;3.40;;;0.80;;
70102;SDS011;57470;50.034;15.256;2023-04-25T00:20:54;3.95;;;1.52;;
70102;SDS011;57470;50.034;15.256;2023-04-25T00:23:20;3.47;;;1.00;;
70102;SDS011;57470;50.034;15.256;2023-04-25T00:25:47;3.63;;;0.87;;
70102;SDS011;57470;50.034;15.256;2023-04-25T00:28:13;3.35;;;1.10;;
70102;SDS011;57470;50.034;15.256;2023-04-25T00:30:40;2.90;;;0.80;;
70102;SDS011;57470;50.034;15.256;2023-04-25T00:33:06;3.28;;;1.08;;
70102;SDS011;57470;50.034;15.256;2023-04-25T00:35:32;4.45;;;1.40;;
70102;SDS011;57470;50.034;15.256;2023-04-25T00:37:58;3.90;;;1.57;;
70102;SDS011;57470;50.034;15.256;2023-04-25T00:40:23;3.63;;;1.13;;
70102;SDS011;57470;50.034;15.256;2023-04-25T00:42:49;3.73;;;1.20;;
70102;SDS011;57470;50.034;15.256;2023-04-25T00:45:16;4.25;;;1.10;;
70102;SDS011;57470;50.034;15.256;2023-04-25T00:47:42;4.00;;;1.10;;
70102;SDS011;57470;50.034;15.256;2023-04-25T00:50:08;2.70;;;0.82;;
70102;SDS011;57470;50.034;15.256;2023-04-25T00:52:34;3.67;;;1.20;;
70102;SDS011;57470;50.034;15.256;2023-04-25T00:55:02;3.38;;;1.17;;
70102;SDS011;57470;50.034;15.256;2023-04-25T00:57:27;3.97;;;1.23;;
70102;SDS011;57470;50.034;15.256;2023-04-25T00:59:53;2.30;;;0.60;;
70102;SDS011;57470;50.034;15.256;2023-04-25T01:02:19;3.13;;;0.85;;
70102;SDS011;57470;50.034;15.256;2023-04-25T01:04:45;4.05;;;1.05;;
70102;SDS011;57470;50.034;15.256;2023-04-25T01:07:12;4.70;;;1.15;;
70102;SDS011;57470;50.034;15.256;2023-04-25T01:09:38;3.93;;;1.20;;
70102;SDS011;57470;50.034;15.256;2023-04-25T01:12:03;3.10;;;0.95;;
70102;SDS011;57470;50.034;15.256;2023-04-25T01:14:29;4.43;;;1.20;;
70102;SDS011;57470;50.034;15.256;2023-04-25T01:16:55;3.13;;;1.00;;
70102;SDS011;57470;50.034;15.256;2023-04-25T01:19:20;3.63;;;0.80;;
70102;SDS011;57470;50.034;15.256;2023-04-25T01:21:46;3.50;;;0.90;;
70102;SDS011;57470;50.034;15.256;2023-04-25T01:24:12;6.95;;;1.73;;
70102;SDS011;57470;50.034;15.256;2023-04-25T01:26:38;4.88;;;1.20;;
70102;SDS011;57470;50.034;15.256;2023-04-25T01:29:05;3.13;;;1.10;;
70102;SDS011;57470;50.034;15.256;2023-04-25T01:31:32;5.00;;;1.52;;
70102;SDS011;57470;50.034;15.256;2023-04-25T01:33:59;3.75;;;1.33;;
70102;SDS011;57470;50.034;15.256;2023-04-25T01:36:25;3.70;;;1.33;;
70102;SDS011;57470;50.034;15.256;2023-04-25T01:38:52;3.38;;;0.90;;
70102;SDS011;57470;50.034;15.256;2023-04-25T01:41:17;3.70;;;0.88;;
70102;SDS011;57470;50.034;15.256;2023-04-25T01:43:43;3.40;;;0.90;;
70102;SDS011;57470;50.034;15.256;2023-04-25T01:46:10;4.35;;;1.10;;
70102;SDS011;57470;50.034;15.256;2023-04-25T01:48:36;2.65;;;0.70;;
70102;SDS011;57470;50.034;15.256;2023-04-25T01:51:01;3.33;;;0.80;;
70102;SDS011;57470;50.034;15.256;2023-04-25T01:53:27;4.60;;;1.52;;
70102;SDS011;57470;50.034;15.256;2023-04-25T01:55:52;3.53;;;1.03;;
70102;SDS011;57470;50.034;15.256;2023-04-25T01:58:18;3.80;;;1.30;;
70102;SDS011;57470;50.034;15.256;2023-04-25T02:00:43;3.80;;;1.40;;
70102;SDS011;57470;50.034;15.256;2023-04-25T02:03:09;4.30;;;1.38;;
70102;SDS011;57470;50.034;15.256;2023-04-25T02:05:36;5.37;;;1.87;;
70102;SDS011;57470;50.034;15.256;2023-04-25T02:08:07;6.28;;;1.30;;
70102;SDS011;57470;50.034;15.256;2023-04-25T02:10:35;3.75;;;1.25;;
70102;SDS011;57470;50.034;15.256;2023-04-25T02:13:03;3.00;;;0.80;;
70102;SDS011;57470;50.034;15.256;2023-04-25T02:15:31;4.22;;;1.27;;
70102;SDS011;57470;50.034;15.256;2023-04-25T02:17:58;4.20;;;1.35;;
70102;SDS011;57470;50.034;15.256;2023-04-25T02:20:29;3.08;;;0.70;;
70102;SDS011;57470;50.034;15.256;2023-04-25T02:22:56;4.95;;;1.48;;
70102;SDS011;57470;50.034;15.256;2023-04-25T02:25:23;7.00;;;1.60;;
70102;SDS011;57470;50.034;15.256;2023-04-25T02:27:50;3.95;;;1.35;;
70102;SDS011;57470;50.034;15.256;2023-04-25T02:30:18;5.18;;;1.63;;
70102;SDS011;57470;50.034;15.256;2023-04-25T02:32:44;4.28;;;1.15;;
70102;SDS011;57470;50.034;15.256;2023-04-25T02:35:12;4.25;;;1.08;;
70102;SDS011;57470;50.034;15.256;2023-04-25T02:37:39;7.80;;;1.17;;
70102;SDS011;57470;50.034;15.256;2023-04-25T02:40:07;4.32;;;1.05;;
70102;SDS011;57470;50.034;15.256;2023-04-25T02:42:35;5.20;;;1.75;;
70102;SDS011;57470;50.034;15.256;2023-04-25T02:45:02;3.50;;;1.10;;
70102;SDS011;57470;50.034;15.256;2023-04-25T02:47:29;6.65;;;1.98;;
70102;SDS011;57470;50.034;15.256;2023-04-25T02:49:56;4.03;;;1.40;;
70102;SDS011;57470;50.034;15.256;2023-04-25T02:52:23;4.40;;;1.17;;
70102;SDS011;57470;50.034;15.256;2023-04-25T02:54:50;3.65;;;1.30;;
70102;SDS011;57470;50.034;15.256;2023-04-25T02:57:18;3.50;;;1.20;;
70102;SDS011;57470;50.034;15.256;2023-04-25T02:59:44;4.75;;;1.88;;
70102;SDS011;57470;50.034;15.256;2023-04-25T03:02:09;3.17;;;1.00;;
70102;SDS011;57470;50.034;15.256;2023-04-25T03:04:35;3.97;;;1.27;;
70102;SDS011;57470;50.034;15.256;2023-04-25T03:07:00;6.17;;;1.70;;
70102;SDS011;57470;50.034;15.256;2023-04-25T03:09:26;3.63;;;1.03;;
70102;SDS011;57470;50.034;15.256;2023-04-25T03:11:51;4.30;;;1.08;;
70102;SDS011;57470;50.034;15.256;2023-04-25T03:14:17;3.80;;;1.17;;
70102;SDS011;57470;50.034;15.256;2023-04-25T03:16:42;5.80;;;0.97;;
70102;SDS011;57470;50.034;15.256;2023-04-25T03:19:07;4.67;;;1.63;;
70102;SDS011;57470;50.034;15.256;2023-04-25T03:21:33;4.40;;;1.40;;
70102;SDS011;57470;50.034;15.256;2023-04-25T03:24:00;3.37;;;1.27;;
70102;SDS011;57470;50.034;15.256;2023-04-25T03:26:27;3.83;;;0.98;;
70102;SDS011;57470;50.034;15.256;2023-04-25T03:28:52;2.97;;;0.97;;
70102;SDS011;57470;50.034;15.256;2023-04-25T03:31:18;4.15;;;1.10;;
70102;SDS011;57470;50.034;15.256;2023-04-25T03:33:43;2.60;;;0.70;;
70102;SDS011;57470;50.034;15.256;2023-04-25T03:36:08;6.53;;;1.60;;
70102;SDS011;57470;50.034;15.256;2023-04-25T03:38:34;3.28;;;0.85;;
70102;SDS011;57470;50.034;15.256;2023-04-25T03:41:00;2.67;;;0.63;;
70102;SDS011;57470;50.034;15.256;2023-04-25T03:43:26;3.30;;;1.17;;
70102;SDS011;57470;50.034;15.256;2023-04-25T03:45:52;4.07;;;1.40;;
70102;SDS011;57470;50.034;15.256;2023-04-25T03:48:17;3.30;;;0.93;;
70102;SDS011;57470;50.034;15.256;2023-04-25T03:50:42;3.87;;;1.13;;
70102;SDS011;57470;50.034;15.256;2023-04-25T03:53:08;4.13;;;1.13;;
70102;SDS011;57470;50.034;15.256;2023-04-25T03:55:33;3.57;;;1.07;;
70102;SDS011;57470;50.034;15.256;2023-04-25T03:57:59;2.70;;;0.80;;
70102;SDS011;57470;50.034;15.256;2023-04-25T04:00:25;3.40;;;1.23;;
70102;SDS011;57470;50.034;15.256;2023-04-25T04:02:50;4.43;;;1.40;;
70102;SDS011;57470;50.034;15.256;2023-04-25T04:05:16;4.18;;;1.10;;
70102;SDS011;57470;50.034;15.256;2023-04-25T04:07:41;3.50;;;1.43;;
70102;SDS011;57470;50.034;15.256;2023-04-25T04:10:08;3.97;;;1.27;;
70102;SDS011;57470;50.034;15.256;2023-04-25T04:12:34;3.70;;;1.33;;
70102;SDS011;57470;50.034;15.256;2023-04-25T04:15:00;3.60;;;1.38;;
70102;SDS011;57470;50.034;15.256;2023-04-25T04:17:28;4.07;;;1.40;;
70102;SDS011;57470;50.034;15.256;2023-04-25T04:19:54;5.00;;;2.00;;
70102;SDS011;57470;50.034;15.256;2023-04-25T04:22:20;3.55;;;0.95;;
70102;SDS011;57470;50.034;15.256;2023-04-25T04:24:45;2.47;;;0.50;;
70102;SDS011;57470;50.034;15.256;2023-04-25T04:27:11;4.10;;;1.10;;
70102;SDS011;57470;50.034;15.256;2023-04-25T04:29:37;5.37;;;1.80;;
70102;SDS011;57470;50.034;15.256;2023-04-25T04:32:03;3.80;;;1.40;;
70102;SDS011;57470;50.034;15.256;2023-04-25T04:34:29;4.32;;;1.48;;
70102;SDS011;57470;50.034;15.256;2023-04-25T04:36:56;2.90;;;0.90;;
70102;SDS011;57470;50.034;15.256;2023-04-25T04:39:21;5.70;;;1.00;;
70102;SDS011;57470;50.034;15.256;2023-04-25T04:41:47;5.40;;;1.47;;
70102;SDS011;57470;50.034;15.256;2023-04-25T04:44:12;5.70;;;1.73;;
70102;SDS011;57470;50.034;15.256;2023-04-25T04:46:39;4.23;;;1.57;;
70102;SDS011;57470;50.034;15.256;2023-04-25T04:49:08;3.40;;;0.90;;
70102;SDS011;57470;50.034;15.256;2023-04-25T04:51:34;3.60;;;1.02;;
70102;SDS011;57470;50.034;15.256;2023-04-25T04:53:59;3.57;;;1.10;;
70102;SDS011;57470;50.034;15.256;2023-04-25T04:56:27;4.03;;;1.30;;
70102;SDS011;57470;50.034;15.256;2023-04-25T04:58:58;6.32;;;1.45;;
70102;SDS011;57470;50.034;15.256;2023-04-25T05:01:24;4.43;;;1.63;;
70102;SDS011;57470;50.034;15.256;2023-04-25T05:03:51;5.03;;;1.70;;
70102;SDS011;57470;50.034;15.256;2023-04-25T05:06:17;5.07;;;1.27;;
70102;SDS011;57470;50.034;15.256;2023-04-25T05:08:43;3.85;;;1.40;;
70102;SDS011;57470;50.034;15.256;2023-04-25T05:11:09;6.35;;;1.95;;
70102;SDS011;57470;50.034;15.256;2023-04-25T05:13:34;3.77;;;1.20;;
70102;SDS011;57470;50.034;15.256;2023-04-25T05:16:00;4.53;;;1.53;;
70102;SDS011;57470;50.034;15.256;2023-04-25T05:18:25;3.90;;;1.20;;
70102;SDS011;57470;50.034;15.256;2023-04-25T05:20:50;4.87;;;1.77;;
70102;SDS011;57470;50.034;15.256;2023-04-25T05:23:16;5.13;;;1.80;;
70102;SDS011;57470;50.034;15.256;2023-04-25T05:25:41;4.03;;;1.20;;
70102;SDS011;57470;50.034;15.256;2023-04-25T05:28:07;5.07;;;1.60;;
70102;SDS011;57470;50.034;15.256;2023-04-25T05:30:33;3.73;;;1.27;;
70102;SDS011;57470;50.034;15.256;2023-04-25T05:32:59;3.85;;;1.33;;
70102;SDS011;57470;50.034;15.256;2023-04-25T05:35:25;4.32;;;1.33;;
70102;SDS011;57470;50.034;15.256;2023-04-25T05:37:51;5.40;;;1.93;;
70102;SDS011;57470;50.034;15.256;2023-04-25T05:40:16;5.63;;;1.93;;
70102;SDS011;57470;50.034;15.256;2023-04-25T05:42:42;5.10;;;2.20;;
70102;SDS011;57470;50.034;15.256;2023-04-25T05:45:07;5.83;;;1.40;;
70102;SDS011;57470;50.034;15.256;2023-04-25T05:47:33;5.33;;;1.83;;
70102;SDS011;57470;50.034;15.256;2023-04-25T05:49:58;5.75;;;1.55;;
70102;SDS011;57470;50.034;15.256;2023-04-25T05:52:24;5.33;;;1.90;;
70102;SDS011;57470;50.034;15.256;2023-04-25T05:54:49;7.03;;;1.80;;
70102;SDS011;57470;50.034;15.256;2023-04-25T05:57:22;3.72;;;1.25;;
70102;SDS011;57470;50.034;15.256;2023-04-25T05:59:51;4.50;;;1.63;;
70102;SDS011;57470;50.034;15.256;2023-04-25T06:02:18;9.35;;;1.75;;
70102;SDS011;57470;50.034;15.256;2023-04-25T06:04:44;5.28;;;1.75;;
70102;SDS011;57470;50.034;15.256;2023-04-25T06:07:09;4.20;;;1.23;;
70102;SDS011;57470;50.034;15.256;2023-04-25T06:09:35;4.33;;;1.43;;
70102;SDS011;57470;50.034;15.256;2023-04-25T06:12:00;6.38;;;2.15;;
70102;SDS011;57470;50.034;15.256;2023-04-25T06:14:26;7.23;;;2.23;;
70102;SDS011;57470;50.034;15.256;2023-04-25T06:16:52;5.20;;;1.63;;
70102;SDS011;57470;50.034;15.256;2023-04-25T06:19:17;2.83;;;0.90;;
70102;SDS011;57470;50.034;15.256;2023-04-25T06:21:43;4.77;;;1.57;;
70102;SDS011;57470;50.034;15.256;2023-04-25T06:24:09;5.72;;;1.90;;
70102;SDS011;57470;50.034;15.256;2023-04-25T06:26:35;6.50;;;1.88;;
70102;SDS011;57470;50.034;15.256;2023-04-25T06:29:01;4.97;;;1.50;;
70102;SDS011;57470;50.034;15.256;2023-04-25T06:31:26;5.18;;;1.40;;
70102;SDS011;57470;50.034;15.256;2023-04-25T06:33:53;6.13;;;2.17;;
70102;SDS011;57470;50.034;15.256;2023-04-25T06:36:19;5.60;;;1.73;;
70102;SDS011;57470;50.034;15.256;2023-04-25T06:38:49;4.20;;;1.33;;
70102;SDS011;57470;50.034;15.256;2023-04-25T06:41:17;13.65;;;1.95;;
70102;SDS011;57470;50.034;15.256;2023-04-25T06:43:43;4.85;;;1.40;;
70102;SDS011;57470;50.034;15.256;2023-04-25T06:46:09;5.57;;;1.90;;
70102;SDS011;57470;50.034;15.256;2023-04-25T06:48:34;5.33;;;1.63;;
70102;SDS011;57470;50.034;15.256;2023-04-25T06:51:00;5.43;;;1.37;;
70102;SDS011;57470;50.034;15.256;2023-04-25T06:53:25;5.18;;;1.55;;
70102;SDS011;57470;50.034;15.256;2023-04-25T06:55:50;5.40;;;1.50;;
70102;SDS011;57470;50.034;15.256;2023-04-25T06:58:16;5.57;;;2.00;;
70102;SDS011;57470;50.034;15.256;2023-04-25T07:00:42;7.43;;;1.98;;
70102;SDS011;57470;50.034;15.256;2023-04-25T07:03:07;5.27;;;1.50;;
70102;SDS011;57470;50.034;15.256;2023-04-25T07:05:39;5.40;;;1.88;;
70102;SDS011;57470;50.034;15.256;2023-04-25T07:08:05;4.50;;;1.53;;
70102;SDS011;57470;50.034;15.256;2023-04-25T07:10:30;6.87;;;1.60;;
70102;SDS011;57470;50.034;15.256;2023-04-25T07:12:56;7.13;;;2.60;;
70102;SDS011;57470;50.034;15.256;2023-04-25T07:15:21;10.20;;;2.40;;
70102;SDS011;57470;50.034;15.256;2023-04-25T07:17:47;4.20;;;1.33;;
70102;SDS011;57470;50.034;15.256;2023-04-25T07:20:12;5.47;;;1.67;;
70102;SDS011;57470;50.034;15.256;2023-04-25T07:22:38;8.52;;;1.65;;
70102;SDS011;57470;50.034;15.256;2023-04-25T07:25:04;5.07;;;1.93;;
70102;SDS011;57470;50.034;15.256;2023-04-25T07:27:30;6.50;;;2.30;;
70102;SDS011;57470;50.034;15.256;2023-04-25T07:29:56;7.90;;;2.07;;
70102;SDS011;57470;50.034;15.256;2023-04-25T07:32:22;5.32;;;2.03;;
70102;SDS011;57470;50.034;15.256;2023-04-25T07:34:47;5.53;;;2.03;;
70102;SDS011;57470;50.034;15.256;2023-04-25T07:37:13;4.55;;;1.38;;
70102;SDS011;57470;50.034;15.256;2023-04-25T07:39:39;5.60;;;1.70;;
70102;SDS011;57470;50.034;15.256;2023-04-25T07:42:04;5.30;;;1.60;;
70102;SDS011;57470;50.034;15.256;2023-04-25T07:44:32;5.63;;;1.60;;
70102;SDS011;57470;50.034;15.256;2023-04-25T07:47:03;6.37;;;1.97;;
70102;SDS011;57470;50.034;15.256;2023-04-25T07:49:31;5.18;;;1.70;;
70102;SDS011;57470;50.034;15.256;2023-04-25T07:51:57;5.82;;;2.10;;
70102;SDS011;57470;50.034;15.256;2023-04-25T07:54:22;5.90;;;1.70;;
70102;SDS011;57470;50.034;15.256;2023-04-25T07:56:48;8.10;;;2.30;;
70102;SDS011;57470;50.034;15.256;2023-04-25T07:59:13;5.40;;;1.73;;
70102;SDS011;57470;50.034;15.256;2023-04-25T08:01:39;4.83;;;1.30;;
70102;SDS011;57470;50.034;15.256;2023-04-25T08:04:04;5.28;;;2.13;;
70102;SDS011;57470;50.034;15.256;2023-04-25T08:06:30;5.77;;;2.17;;
70102;SDS011;57470;50.034;15.256;2023-04-25T08:08:56;7.22;;;1.85;;
70102;SDS011;57470;50.034;15.256;2023-04-25T08:11:21;5.57;;;1.33;;
70102;SDS011;57470;50.034;15.256;2023-04-25T08:13:47;10.47;;;1.33;;
70102;SDS011;57470;50.034;15.256;2023-04-25T08:16:12;6.70;;;1.93;;
70102;SDS011;57470;50.034;15.256;2023-04-25T08:18:37;5.20;;;1.85;;
70102;SDS011;57470;50.034;15.256;2023-04-25T08:21:03;10.77;;;1.97;;
70102;SDS011;57470;50.034;15.256;2023-04-25T08:23:28;5.83;;;2.07;;
70102;SDS011;57470;50.034;15.256;2023-04-25T08:25:54;9.30;;;2.27;;
70102;SDS011;57470;50.034;15.256;2023-04-25T08:28:19;7.40;;;2.00;;
70102;SDS011;57470;50.034;15.256;2023-04-25T08:30:45;4.47;;;1.70;;
70102;SDS011;57470;50.034;15.256;2023-04-25T08:33:10;6.23;;;2.17;;
70102;SDS011;57470;50.034;15.256;2023-04-25T08:35:36;5.63;;;1.90;;
70102;SDS011;57470;50.034;15.256;2023-04-25T08:38:01;5.50;;;2.08;;
70102;SDS011;57470;50.034;15.256;2023-04-25T08:40:27;5.77;;;1.97;;
70102;SDS011;57470;50.034;15.256;2023-04-25T08:42:56;6.00;;;1.50;;
70102;SDS011;57470;50.034;15.256;2023-04-25T08:45:22;5.68;;;1.75;;
70102;SDS011;57470;50.034;15.256;2023-04-25T08:47:48;5.63;;;1.33;;
70102;SDS011;57470;50.034;15.256;2023-04-25T08:50:17;5.82;;;1.63;;
70102;SDS011;57470;50.034;15.256;2023-04-25T08:52:46;6.00;;;1.70;;
70102;SDS011;57470;50.034;15.256;2023-04-25T08:55:13;5.80;;;2.03;;
70102;SDS011;57470;50.034;15.256;2023-04-25T08:57:42;9.15;;;1.23;;
70102;SDS011;57470;50.034;15.256;2023-04-25T09:00:11;6.65;;;1.80;;
70102;SDS011;57470;50.034;15.256;2023-04-25T09:02:40;4.45;;;1.27;;
70102;SDS011;57470;50.034;15.256;2023-04-25T09:05:07;7.28;;;1.95;;
70102;SDS011;57470;50.034;15.256;2023-04-25T09:07:34;5.20;;;1.57;;
70102;SDS011;57470;50.034;15.256;2023-04-25T09:10:00;5.15;;;1.70;;
70102;SDS011;57470;50.034;15.256;2023-04-25T09:12:27;5.60;;;1.97;;
70102;SDS011;57470;50.034;15.256;2023-04-25T09:15:01;6.93;;;1.85;;
70102;SDS011;57470;50.034;15.256;2023-04-25T09:17:29;5.15;;;1.55;;
70102;SDS011;57470;50.034;15.256;2023-04-25T09:19:54;4.73;;;1.20;;
70102;SDS011;57470;50.034;15.256;2023-04-25T09:22:20;6.25;;;1.88;;
70102;SDS011;57470;50.034;15.256;2023-04-25T09:24:47;5.17;;;1.80;;
70102;SDS011;57470;50.034;15.256;2023-04-25T09:27:18;5.25;;;1.52;;
70102;SDS011;57470;50.034;15.256;2023-04-25T09:29:45;5.20;;;1.20;;
70102;SDS011;57470;50.034;15.256;2023-04-25T09:34:43;5.75;;;1.92;;
70102;SDS011;57470;50.034;15.256;2023-04-25T09:37:16;5.00;;;1.65;;
70102;SDS011;57470;50.034;15.256;2023-04-25T09:39:44;4.32;;;1.27;;
70102;SDS011;57470;50.034;15.256;2023-04-25T09:42:11;5.97;;;1.40;;
70102;SDS011;57470;50.034;15.256;2023-04-25T09:44:37;5.68;;;1.70;;
70102;SDS011;57470;50.034;15.256;2023-04-25T09:47:09;8.52;;;2.45;;
70102;SDS011;57470;50.034;15.256;2023-04-25T09:49:38;6.43;;;2.40;;
70102;SDS011;57470;50.034;15.256;2023-04-25T09:52:06;4.45;;;1.48;;
70102;SDS011;57470;50.034;15.256;2023-04-25T09:54:31;7.20;;;2.00;;
70102;SDS011;57470;50.034;15.256;2023-04-25T09:56:56;5.95;;;2.50;;
70102;SDS011;57470;50.034;15.256;2023-04-25T09:59:28;4.87;;;1.40;;
70102;SDS011;57470;50.034;15.256;2023-04-25T10:01:56;5.07;;;2.20;;
70102;SDS011;57470;50.034;15.256;2023-04-25T10:04:23;4.45;;;1.27;;
70102;SDS011;57470;50.034;15.256;2023-04-25T10:06:51;4.90;;;1.88;;
70102;SDS011;57470;50.034;15.256;2023-04-25T10:09:21;5.95;;;2.15;;
70102;SDS011;57470;50.034;15.256;2023-04-25T10:11:51;4.50;;;1.60;;
70102;SDS011;57470;50.034;15.256;2023-04-25T10:14:17;7.43;;;2.40;;
70102;SDS011;57470;50.034;15.256;2023-04-25T10:16:43;8.23;;;1.55;;
70102;SDS011;57470;50.034;15.256;2023-04-25T10:19:10;5.18;;;1.83;;
70102;SDS011;57470;50.034;15.256;2023-04-25T10:21:36;6.07;;;2.47;;
70102;SDS011;57470;50.034;15.256;2023-04-25T10:24:11;5.45;;;1.85;;
70102;SDS011;57470;50.034;15.256;2023-04-25T10:26:37;4.53;;;1.45;;
70102;SDS011;57470;50.034;15.256;2023-04-25T10:29:03;6.43;;;2.20;;
70102;SDS011;57470;50.034;15.256;2023-04-25T10:31:29;6.23;;;1.80;;
70102;SDS011;57470;50.034;15.256;2023-04-25T10:33:56;7.53;;;2.70;;
70102;SDS011;57470;50.034;15.256;2023-04-25T10:36:22;6.10;;;2.40;;
70102;SDS011;57470;50.034;15.256;2023-04-25T10:38:49;4.95;;;1.80;;
70102;SDS011;57470;50.034;15.256;2023-04-25T10:41:17;7.53;;;2.50;;
70102;SDS011;57470;50.034;15.256;2023-04-25T10:43:44;6.28;;;1.70;;
70102;SDS011;57470;50.034;15.256;2023-04-25T10:46:23;7.57;;;2.05;;
70102;SDS011;57470;50.034;15.256;2023-04-25T10:48:57;8.18;;;2.03;;
70102;SDS011;57470;50.034;15.256;2023-04-25T10:51:27;5.25;;;1.65;;
70102;SDS011;57470;50.034;15.256;2023-04-25T10:56:21;6.23;;;1.97;;
70102;SDS011;57470;50.034;15.256;2023-04-25T10:58:47;6.05;;;2.15;;
70102;SDS011;57470;50.034;15.256;2023-04-25T11:01:13;7.57;;;2.60;;
70102;SDS011;57470;50.034;15.256;2023-04-25T11:03:40;6.88;;;2.38;;
70102;SDS011;57470;50.034;15.256;2023-04-25T11:06:11;7.28;;;2.70;;
70102;SDS011;57470;50.034;15.256;2023-04-25T11:08:49;6.50;;;1.77;;
70102;SDS011;57470;50.034;15.256;2023-04-25T11:11:16;6.28;;;2.15;;
70102;SDS011;57470;50.034;15.256;2023-04-25T11:13:43;5.50;;;1.88;;
70102;SDS011;57470;50.034;15.256;2023-04-25T11:16:08;4.80;;;1.58;;
70102;SDS011;57470;50.034;15.256;2023-04-25T11:18:34;5.80;;;1.40;;
70102;SDS011;57470;50.034;15.256;2023-04-25T11:20:59;6.47;;;1.57;;
70102;SDS011;57470;50.034;15.256;2023-04-25T11:23:25;4.40;;;1.30;;
70102;SDS011;57470;50.034;15.256;2023-04-25T11:25:51;3.13;;;0.68;;
70102;SDS011;57470;50.034;15.256;2023-04-25T11:28:20;5.10;;;1.23;;
70102;SDS011;57470;50.034;15.256;2023-04-25T11:30:49;2.90;;;0.75;;
70102;SDS011;57470;50.034;15.256;2023-04-25T11:33:23;6.90;;;1.60;;
70102;SDS011;57470;50.034;15.256;2023-04-25T11:35:49;3.47;;;0.80;;
70102;SDS011;57470;50.034;15.256;2023-04-25T11:38:14;3.93;;;1.10;;
70102;SDS011;57470;50.034;15.256;2023-04-25T11:40:40;5.17;;;1.23;;
70102;SDS011;57470;50.034;15.256;2023-04-25T11:43:05;5.25;;;1.30;;
70102;SDS011;57470;50.034;15.256;2023-04-25T11:45:31;4.53;;;1.37;;
70102;SDS011;57470;50.034;15.256;2023-04-25T11:47:56;6.18;;;1.88;;
70102;SDS011;57470;50.034;15.256;2023-04-25T11:50:22;4.77;;;1.93;;
70102;SDS011;57470;50.034;15.256;2023-04-25T11:52:47;4.63;;;1.33;;
70102;SDS011;57470;50.034;15.256;2023-04-25T11:57:40;5.00;;;1.90;;
70102;SDS011;57470;50.034;15.256;2023-04-25T12:00:14;5.27;;;1.90;;
70102;SDS011;57470;50.034;15.256;2023-04-25T12:02:45;5.22;;;1.55;;
70102;SDS011;57470;50.034;15.256;2023-04-25T12:05:12;5.30;;;1.55;;
70102;SDS011;57470;50.034;15.256;2023-04-25T12:07:39;6.47;;;2.60;;
70102;SDS011;57470;50.034;15.256;2023-04-25T12:10:16;6.88;;;2.15;;
70102;SDS011;57470;50.034;15.256;2023-04-25T12:12:43;7.77;;;2.60;;
70102;SDS011;57470;50.034;15.256;2023-04-25T12:17:36;7.57;;;2.53;;
70102;SDS011;57470;50.034;15.256;2023-04-25T12:20:07;6.60;;;1.92;;
70102;SDS011;57470;50.034;15.256;2023-04-25T12:22:37;6.35;;;2.40;;
70102;SDS011;57470;50.034;15.256;2023-04-25T12:25:03;5.80;;;2.07;;
70102;SDS011;57470;50.034;15.256;2023-04-25T12:27:30;5.38;;;1.65;;
70102;SDS011;57470;50.034;15.256;2023-04-25T12:29:56;7.20;;;2.10;;
70102;SDS011;57470;50.034;15.256;2023-04-25T12:32:23;5.17;;;2.03;;
70102;SDS011;57470;50.034;15.256;2023-04-25T12:34:48;6.45;;;2.72;;
70102;SDS011;57470;50.034;15.256;2023-04-25T12:37:14;6.63;;;2.50;;
70102;SDS011;57470;50.034;15.256;2023-04-25T12:39:40;6.47;;;2.53;;
70102;SDS011;57470;50.034;15.256;2023-04-25T12:42:05;5.67;;;2.47;;
70102;SDS011;57470;50.034;15.256;2023-04-25T12:44:32;6.20;;;2.22;;
70102;SDS011;57470;50.034;15.256;2023-04-25T12:46:58;6.27;;;2.50;;
70102;SDS011;57470;50.034;15.256;2023-04-25T12:49:24;5.23;;;1.67;;
70102;SDS011;57470;50.034;15.256;2023-04-25T12:51:50;6.03;;;2.00;;
70102;SDS011;57470;50.034;15.256;2023-04-25T12:54:16;5.57;;;1.83;;
70102;SDS011;57470;50.034;15.256;2023-04-25T12:56:42;6.10;;;2.00;;
70102;SDS011;57470;50.034;15.256;2023-04-25T12:59:07;5.70;;;1.40;;
70102;SDS011;57470;50.034;15.256;2023-04-25T13:01:33;5.53;;;2.03;;
70102;SDS011;57470;50.034;15.256;2023-04-25T13:03:58;4.78;;;1.85;;
70102;SDS011;57470;50.034;15.256;2023-04-25T13:06:23;5.60;;;1.87;;
70102;SDS011;57470;50.034;15.256;2023-04-25T13:08:49;6.03;;;1.77;;
70102;SDS011;57470;50.034;15.256;2023-04-25T13:11:15;5.50;;;1.90;;
70102;SDS011;57470;50.034;15.256;2023-04-25T13:13:40;8.85;;;2.17;;
70102;SDS011;57470;50.034;15.256;2023-04-25T13:16:06;4.68;;;1.73;;
70102;SDS011;57470;50.034;15.256;2023-04-25T13:18:32;5.20;;;1.67;;
70102;SDS011;57470;50.034;15.256;2023-04-25T13:20:58;5.78;;;2.20;;
70102;SDS011;57470;50.034;15.256;2023-04-25T13:23:27;8.68;;;2.70;;
70102;SDS011;57470;50.034;15.256;2023-04-25T13:25:54;8.02;;;2.47;;
70102;SDS011;57470;50.034;15.256;2023-04-25T13:28:20;5.73;;;2.10;;
70102;SDS011;57470;50.034;15.256;2023-04-25T13:30:46;7.63;;;2.40;;
70102;SDS011;57470;50.034;15.256;2023-04-25T13:33:13;5.97;;;1.98;;
70102;SDS011;57470;50.034;15.256;2023-04-25T13:35:38;6.13;;;2.60;;
70102;SDS011;57470;50.034;15.256;2023-04-25T13:38:04;5.97;;;2.47;;
70102;SDS011;57470;50.034;15.256;2023-04-25T13:40:29;6.33;;;2.10;;
70102;SDS011;57470;50.034;15.256;2023-04-25T13:42:55;7.87;;;3.20;;
70102;SDS011;57470;50.034;15.256;2023-04-25T13:45:21;5.80;;;2.42;;
70102;SDS011;57470;50.034;15.256;2023-04-25T13:47:47;5.30;;;1.73;;
70102;SDS011;57470;50.034;15.256;2023-04-25T13:50:13;4.70;;;1.50;;
70102;SDS011;57470;50.034;15.256;2023-04-25T13:52:39;5.25;;;1.73;;
70102;SDS011;57470;50.034;15.256;2023-04-25T13:55:05;7.15;;;1.90;;
70102;SDS011;57470;50.034;15.256;2023-04-25T13:57:32;7.87;;;2.77;;
70102;SDS011;57470;50.034;15.256;2023-04-25T13:59:58;5.57;;;2.45;;
70102;SDS011;57470;50.034;15.256;2023-04-25T14:02:24;5.70;;;2.50;;
70102;SDS011;57470;50.034;15.256;2023-04-25T14:04:50;7.43;;;2.67;;
70102;SDS011;57470;50.034;15.256;2023-04-25T14:07:16;6.83;;;2.77;;
70102;SDS011;57470;50.034;15.256;2023-04-25T14:09:43;9.23;;;2.90;;
70102;SDS011;57470;50.034;15.256;2023-04-25T14:12:08;6.10;;;2.40;;
70102;SDS011;57470;50.034;15.256;2023-04-25T14:14:34;4.53;;;1.53;;
70102;SDS011;57470;50.034;15.256;2023-04-25T14:16:59;7.57;;;2.25;;
70102;SDS011;57470;50.034;15.256;2023-04-25T14:19:24;6.40;;;2.33;;
70102;SDS011;57470;50.034;15.256;2023-04-25T14:21:50;6.53;;;2.60;;
70102;SDS011;57470;50.034;15.256;2023-04-25T14:24:15;6.30;;;2.67;;
70102;SDS011;57470;50.034;15.256;2023-04-25T14:26:41;5.22;;;1.75;;
70102;SDS011;57470;50.034;15.256;2023-04-25T14:29:07;7.25;;;2.15;;
70102;SDS011;57470;50.034;15.256;2023-04-25T14:31:34;6.70;;;1.53;;
70102;SDS011;57470;50.034;15.256;2023-04-25T14:34:00;5.35;;;1.90;;
70102;SDS011;57470;50.034;15.256;2023-04-25T14:36:30;5.72;;;1.50;;
70102;SDS011;57470;50.034;15.256;2023-04-25T14:38:56;5.72;;;1.70;;